createdAt,value
2019-02-12T00:02:31.732Z,10.10
2019-02-12T00:05:03.272Z,5.80
2019-02-12T00:07:34.734Z,7.73
2019-02-12T00:10:06.574Z,10.33
2019-02-12T00:12:38.697Z,10.73
2019-02-12T00:15:10.831Z,6.83
2019-02-12T00:17:42.072Z,10.37
2019-02-12T00:20:13.475Z,8.37
2019-02-12T00:22:45.306Z,7.17
2019-02-12T00:25:16.876Z,10.23
2019-02-12T00:27:48.299Z,11.40
2019-02-12T00:30:19.604Z,5.77
2019-02-12T00:32:51.568Z,8.07
2019-02-12T00:35:23.072Z,7.87
2019-02-12T00:37:54.878Z,5.50
2019-02-12T00:40:26.552Z,8.53
2019-02-12T00:42:57.736Z,7.10
2019-02-12T00:45:29.004Z,9.23
2019-02-12T00:48:00.515Z,7.13
2019-02-12T00:50:32.499Z,3.80
2019-02-12T00:53:04.106Z,6.30
2019-02-12T00:55:35.698Z,4.77
2019-02-12T00:58:07.225Z,4.30
2019-02-12T01:00:38.955Z,6.00
2019-02-12T01:03:10.623Z,7.17
2019-02-12T01:05:42.284Z,7.27
2019-02-12T01:08:14.094Z,6.93
2019-02-12T01:10:45.575Z,5.73
2019-02-12T01:13:17.118Z,5.10
2019-02-12T01:15:48.489Z,3.60
2019-02-12T01:18:20.286Z,9.73
2019-02-12T01:20:52.431Z,3.83
2019-02-12T01:23:23.861Z,6.60
2019-02-12T01:25:55.085Z,2.87
2019-02-12T01:28:26.567Z,5.80
2019-02-12T01:30:58.308Z,5.13
2019-02-12T01:33:29.601Z,5.43
2019-02-12T01:36:00.993Z,8.33
2019-02-12T01:38:32.296Z,5.43
2019-02-12T01:41:04.050Z,4.27
2019-02-12T01:43:35.328Z,5.60
2019-02-12T01:46:06.690Z,5.47
2019-02-12T01:48:38.410Z,7.07
2019-02-12T01:51:10.725Z,5.83
2019-02-12T01:53:42.042Z,5.70
2019-02-12T01:56:13.331Z,5.60
2019-02-12T01:58:44.744Z,9.17
2019-02-12T02:01:16.211Z,3.53
2019-02-12T02:03:47.714Z,4.07
2019-02-12T02:06:19.235Z,5.20
2019-02-12T02:08:50.621Z,6.27
2019-02-12T02:11:22.398Z,4.77
2019-02-12T02:13:54.217Z,6.07
2019-02-12T02:16:25.591Z,2.77
2019-02-12T02:18:57.139Z,4.17
2019-02-12T02:21:29.062Z,3.37
2019-02-12T02:24:00.465Z,6.17
2019-02-12T02:26:33.530Z,9.20
2019-02-12T02:29:04.936Z,5.47
2019-02-12T02:31:41.754Z,4.47
2019-02-12T02:34:13.040Z,3.87
2019-02-12T02:36:44.764Z,3.47
2019-02-12T02:39:16.223Z,4.87
2019-02-12T02:41:47.928Z,4.40
2019-02-12T02:44:19.458Z,2.80
2019-02-12T02:46:51.315Z,3.03
2019-02-12T02:49:22.844Z,2.40
2019-02-12T02:51:54.970Z,3.67
2019-02-12T02:54:26.405Z,1.23
2019-02-12T02:56:57.829Z,3.23
2019-02-12T02:59:29.832Z,3.00
2019-02-12T03:02:01.306Z,5.07
2019-02-12T03:04:32.648Z,3.23
2019-02-12T03:07:04.103Z,3.40
2019-02-12T03:09:36.485Z,2.30
2019-02-12T03:12:07.709Z,5.23
2019-02-12T03:14:39.421Z,3.17
2019-02-12T03:17:11.050Z,2.43
2019-02-12T03:19:42.713Z,4.27
2019-02-12T03:22:14.150Z,4.23
2019-02-12T03:24:45.783Z,4.83
2019-02-12T03:27:17.577Z,5.80
2019-02-12T03:29:48.977Z,4.00
2019-02-12T03:32:20.812Z,3.73
2019-02-12T03:34:52.567Z,1.80
2019-02-12T03:37:24.032Z,6.37
2019-02-12T03:39:55.268Z,5.23
2019-02-12T03:42:27.083Z,2.10
2019-02-12T03:44:58.468Z,5.43
2019-02-12T03:47:29.873Z,2.83
2019-02-12T03:50:01.179Z,4.13
2019-02-12T03:52:32.750Z,5.30
2019-02-12T03:55:04.567Z,3.97
2019-02-12T03:57:36.530Z,4.00
2019-02-12T04:00:10.816Z,8.00
2019-02-12T04:03:05.062Z,4.40
2019-02-12T04:05:37.433Z,3.97
2019-02-12T04:08:10.652Z,3.73
2019-02-12T04:10:42.236Z,3.23
2019-02-12T04:13:13.614Z,4.33
2019-02-12T04:15:45.290Z,3.03
2019-02-12T04:18:16.959Z,6.20
2019-02-12T04:20:48.547Z,4.10
2019-02-12T04:23:19.886Z,1.93
2019-02-12T04:25:51.556Z,4.47
2019-02-12T04:28:23.624Z,2.37
2019-02-12T04:30:55.090Z,2.00
2019-02-12T04:33:26.418Z,2.53
2019-02-12T04:35:57.830Z,4.70
2019-02-12T04:38:29.197Z,2.70
2019-02-12T04:41:00.632Z,6.77
2019-02-12T04:43:32.337Z,5.20
2019-02-12T04:46:04.176Z,2.83
2019-02-12T04:48:35.545Z,2.60
2019-02-12T04:51:12.365Z,4.73
2019-02-12T04:53:44.040Z,1.70
2019-02-12T04:56:15.404Z,2.97
2019-02-12T04:58:46.831Z,5.27
2019-02-12T05:01:19.099Z,2.67
2019-02-12T05:03:50.474Z,2.50
2019-02-12T05:06:21.933Z,1.73
2019-02-12T05:09:13.965Z,4.00
2019-02-12T05:11:55.867Z,4.53
2019-02-12T05:14:27.440Z,3.90
2019-02-12T05:16:58.887Z,4.90
2019-02-12T05:19:30.421Z,4.77
2019-02-12T05:22:02.649Z,14.60
2019-02-12T05:24:34.179Z,2.83
2019-02-12T05:27:05.643Z,4.00
2019-02-12T05:29:37.132Z,4.80
2019-02-12T05:32:13.657Z,3.73
2019-02-12T05:34:45.353Z,9.83
2019-02-12T05:37:19.418Z,3.27
2019-02-12T05:39:50.846Z,4.07
2019-02-12T05:42:22.733Z,3.03
2019-02-12T05:44:54.540Z,5.80
2019-02-12T05:47:25.804Z,5.57
2019-02-12T05:49:57.302Z,5.40
2019-02-12T05:52:28.904Z,2.37
2019-02-12T05:55:00.402Z,4.70
2019-02-12T05:57:31.877Z,3.63
2019-02-12T06:00:03.608Z,3.80
2019-02-12T06:02:35.715Z,5.47
2019-02-12T06:05:07.431Z,4.97
2019-02-12T06:07:38.775Z,7.63
2019-02-12T06:10:11.247Z,12.10
2019-02-12T06:12:48.184Z,8.27
2019-02-12T06:15:19.661Z,7.10
2019-02-12T06:17:51.475Z,6.97
2019-02-12T06:20:22.822Z,8.47
2019-02-12T06:23:03.328Z,7.60
2019-02-12T06:25:30.242Z,5.53
2019-02-12T06:28:01.960Z,6.20
2019-02-12T06:30:33.308Z,7.83
2019-02-12T06:33:07.665Z,9.00
2019-02-12T06:35:38.461Z,9.33
2019-02-12T06:38:10.237Z,8.87
2019-02-12T06:40:42.080Z,8.77
2019-02-12T06:43:13.577Z,4.20
2019-02-12T06:45:45.116Z,4.00
2019-02-12T06:48:16.799Z,5.90
2019-02-12T06:50:48.287Z,6.43
2019-02-12T06:53:22.469Z,9.07
2019-02-12T06:55:54.151Z,4.93
2019-02-12T06:58:25.635Z,6.00
2019-02-12T07:00:57.256Z,9.63
2019-02-12T07:03:58.286Z,5.80
2019-02-12T07:07:22.539Z,8.33
2019-02-12T07:10:03.546Z,5.93
2019-02-12T07:13:16.788Z,8.87
2019-02-12T07:16:08.697Z,6.43
2019-02-12T07:19:06.745Z,10.97
2019-02-12T07:22:08.056Z,9.27
2019-02-12T07:25:22.605Z,6.13
2019-02-12T07:28:37.755Z,8.53
2019-02-12T07:31:46.323Z,6.30
2019-02-12T07:35:01.255Z,6.93
2019-02-12T07:37:47.043Z,8.20
2019-02-12T07:41:20.124Z,8.97
2019-02-12T07:44:22.384Z,7.43
2019-02-12T07:47:11.288Z,8.80
2019-02-12T07:50:18.361Z,9.20
2019-02-12T07:53:07.461Z,11.73
2019-02-12T07:56:11.249Z,12.00
2019-02-12T07:59:47.770Z,8.50
2019-02-12T08:03:07.551Z,11.90
2019-02-12T08:06:07.880Z,6.90
2019-02-12T08:09:09.895Z,12.03
2019-02-12T08:12:08.717Z,8.73
2019-02-12T08:14:49.379Z,12.37
2019-02-12T08:17:59.422Z,9.30
2019-02-12T08:21:39.241Z,9.10
2019-02-12T08:24:33.299Z,13.10
2019-02-12T08:27:47.190Z,11.83
2019-02-12T08:30:45.500Z,10.47
2019-02-12T08:34:13.478Z,9.50
2019-02-12T08:37:12.622Z,9.43
2019-02-12T08:40:23.750Z,8.73
2019-02-12T08:43:33.005Z,6.40
2019-02-12T08:46:53.184Z,9.17
2019-02-12T08:49:47.310Z,5.67
2019-02-12T08:53:03.298Z,6.73
2019-02-12T08:55:58.620Z,7.63
2019-02-12T08:58:59.974Z,6.27
2019-02-12T09:02:15.798Z,6.60
2019-02-12T09:05:08.322Z,5.53
2019-02-12T09:08:10.460Z,7.00
2019-02-12T09:11:31.453Z,6.60
2019-02-12T09:14:13.610Z,5.40
2019-02-12T09:17:25.850Z,6.63
2019-02-12T09:20:39.359Z,4.57
2019-02-12T09:23:59.413Z,5.50
2019-02-12T09:26:48.579Z,4.33
2019-02-12T09:30:01.055Z,5.73
2019-02-12T09:33:14.853Z,3.20
2019-02-12T09:36:27.311Z,6.33
2019-02-12T09:39:20.505Z,4.57
2019-02-12T09:42:24.138Z,3.90
2019-02-12T09:45:35.876Z,5.40
2019-02-12T09:48:15.687Z,4.13
2019-02-12T09:51:22.627Z,5.37
2019-02-12T09:54:11.758Z,6.73
2019-02-12T09:57:32.257Z,6.43
2019-02-12T10:00:32.144Z,5.80
2019-02-12T10:03:53.871Z,5.33
2019-02-12T10:06:50.893Z,5.63
2019-02-12T10:10:09.969Z,5.47
2019-02-12T10:13:31.077Z,4.07
2019-02-12T10:16:55.277Z,7.37
2019-02-12T10:19:37.657Z,5.77
2019-02-12T10:22:41.450Z,5.83
2019-02-12T10:25:16.550Z,5.90
2019-02-12T10:28:18.092Z,6.93
2019-02-12T10:31:09.397Z,6.73
2019-02-12T10:33:40.946Z,5.97
2019-02-12T10:36:12.884Z,4.90
2019-02-12T10:38:44.437Z,5.50
2019-02-12T10:41:16.290Z,8.77
2019-02-12T10:43:47.666Z,8.90
2019-02-12T10:46:19.017Z,8.20
2019-02-12T10:48:50.775Z,8.47
2019-02-12T10:51:22.698Z,3.63
2019-02-12T10:53:54.443Z,7.10
2019-02-12T10:56:26.031Z,5.40
2019-02-12T10:58:57.572Z,2.43
2019-02-12T11:01:29.059Z,5.87
2019-02-12T11:04:00.655Z,4.90
2019-02-12T11:06:31.895Z,6.17
2019-02-12T11:09:04.466Z,7.10
2019-02-12T11:11:36.978Z,6.07
2019-02-12T11:14:08.822Z,10.43
2019-02-12T11:16:40.396Z,3.97
2019-02-12T11:19:12.492Z,5.10
2019-02-12T11:21:44.257Z,11.63
2019-02-12T11:24:15.858Z,7.93
2019-02-12T11:26:47.226Z,7.53
2019-02-12T11:29:18.674Z,7.10
2019-02-12T11:31:50.279Z,5.80
2019-02-12T11:34:22.049Z,10.20
2019-02-12T11:36:53.857Z,7.47
2019-02-12T11:39:25.468Z,10.53
2019-02-12T11:41:57.313Z,5.20
2019-02-12T11:44:29.882Z,13.30
2019-02-12T11:47:01.464Z,5.37
2019-02-12T11:49:33.012Z,8.53
2019-02-12T11:52:04.675Z,6.33
2019-02-12T11:54:43.419Z,6.63
2019-02-12T11:57:09.592Z,10.03
2019-02-12T11:59:40.996Z,13.77
2019-02-12T12:02:14.225Z,6.37
2019-02-12T12:04:45.524Z,6.70
2019-02-12T12:07:16.938Z,9.33
2019-02-12T12:09:48.271Z,5.87
2019-02-12T12:12:19.988Z,7.47
2019-02-12T12:14:51.549Z,9.03
2019-02-12T12:17:22.948Z,5.63
2019-02-12T12:19:54.513Z,5.50
2019-02-12T12:22:25.929Z,8.43
2019-02-12T12:24:57.216Z,4.57
2019-02-12T12:27:28.856Z,3.20
2019-02-12T12:30:00.392Z,3.93
2019-02-12T12:32:31.868Z,6.47
2019-02-12T12:35:03.455Z,4.77
2019-02-12T12:37:34.988Z,3.50
2019-02-12T12:40:06.776Z,6.57
2019-02-12T12:42:38.601Z,4.80
2019-02-12T12:45:11.164Z,9.30
2019-02-12T12:47:43.059Z,6.90
2019-02-12T12:50:14.489Z,12.03
2019-02-12T12:52:46.468Z,6.63
2019-02-12T12:55:17.914Z,6.33
2019-02-12T12:57:49.474Z,6.57
2019-02-12T13:00:21.078Z,7.53
2019-02-12T13:02:52.717Z,8.73
2019-02-12T13:05:24.056Z,4.80
2019-02-12T13:07:56.965Z,2.50
2019-02-12T13:10:30.515Z,10.57
2019-02-12T13:13:02.126Z,5.13
2019-02-12T13:15:33.593Z,4.87
2019-02-12T13:18:05.196Z,9.07
2019-02-12T13:20:36.864Z,6.37
2019-02-12T13:23:08.240Z,6.80
2019-02-12T13:25:40.222Z,8.20
2019-02-12T13:28:12.063Z,3.43
2019-02-12T13:30:43.968Z,6.10
2019-02-12T13:33:15.801Z,8.63
2019-02-12T13:35:47.638Z,6.67
2019-02-12T13:38:19.178Z,6.90
2019-02-12T13:40:55.451Z,9.93
2019-02-12T13:43:26.822Z,7.83
2019-02-12T13:45:58.206Z,6.17
2019-02-12T13:48:29.700Z,4.70
2019-02-12T13:51:01.321Z,5.83
2019-02-12T13:53:33.596Z,4.87
2019-02-12T13:56:04.905Z,6.67
2019-02-12T13:58:36.341Z,8.80
2019-02-12T14:01:07.823Z,7.73
2019-02-12T14:03:39.499Z,4.93
2019-02-12T14:06:11.312Z,10.03
2019-02-12T14:08:43.188Z,5.50
2019-02-12T14:11:20.144Z,8.60
2019-02-12T14:13:51.822Z,6.37
2019-02-12T14:16:23.342Z,7.17
2019-02-12T14:18:54.736Z,7.67
2019-02-12T14:21:26.517Z,10.13
2019-02-12T14:23:57.855Z,6.33
2019-02-12T14:26:29.310Z,6.83
2019-02-12T14:29:00.773Z,8.70
2019-02-12T14:31:32.318Z,10.40
2019-02-12T14:34:03.825Z,6.33
2019-02-12T14:36:35.179Z,4.63
2019-02-12T14:39:07.167Z,6.53
2019-02-12T14:41:38.670Z,9.90
2019-02-12T14:44:10.543Z,6.27
2019-02-12T14:46:41.855Z,7.50
2019-02-12T14:49:13.212Z,5.93
2019-02-12T14:51:44.777Z,8.63
2019-02-12T14:54:16.303Z,6.40
2019-02-12T14:56:47.682Z,13.73
2019-02-12T14:59:19.194Z,7.33
2019-02-12T15:01:55.897Z,8.93
2019-02-12T15:04:27.275Z,11.47
2019-02-12T15:06:58.655Z,11.73
2019-02-12T15:09:30.123Z,6.73
2019-02-12T15:12:01.689Z,9.83
2019-02-12T15:14:33.352Z,11.60
2019-02-12T15:17:05.004Z,14.90
2019-02-12T15:19:36.396Z,12.97
2019-02-12T15:22:07.888Z,11.07
2019-02-12T15:24:39.258Z,17.27
2019-02-12T15:27:11.035Z,20.60
2019-02-12T15:29:43.562Z,22.80
2019-02-12T15:32:15.047Z,22.93
2019-02-12T15:34:46.449Z,21.23
2019-02-12T15:37:18.039Z,18.37
2019-02-12T15:39:49.696Z,15.97
2019-02-12T15:42:21.607Z,33.20
2019-02-12T15:44:53.320Z,13.30
2019-02-12T15:47:25.185Z,28.43
2019-02-12T15:49:56.503Z,30.97
2019-02-12T15:52:28.248Z,41.57
2019-02-12T15:54:59.770Z,23.33
2019-02-12T15:57:31.339Z,25.83
2019-02-12T16:00:02.878Z,16.90
2019-02-12T16:02:37.716Z,16.27
2019-02-12T16:05:12.343Z,16.77
2019-02-12T16:07:45.239Z,15.83
2019-02-12T16:10:19.389Z,27.63
2019-02-12T16:12:51.764Z,27.97
2019-02-12T16:15:24.826Z,29.57
2019-02-12T16:17:57.885Z,14.77
2019-02-12T16:20:30.912Z,12.50
2019-02-12T16:23:02.633Z,11.90
2019-02-12T16:25:34.533Z,8.20
2019-02-12T16:28:07.699Z,8.53
2019-02-12T16:30:39.510Z,11.30
2019-02-12T16:33:11.570Z,7.87
2019-02-12T16:35:43.072Z,8.07
2019-02-12T16:38:14.541Z,11.37
2019-02-12T16:40:46.681Z,9.13
2019-02-12T16:43:18.153Z,9.23
2019-02-12T16:45:57.818Z,7.13
2019-02-12T16:48:29.291Z,8.20
2019-02-12T16:51:00.789Z,9.27
2019-02-12T16:53:32.304Z,10.33
2019-02-12T16:56:08.375Z,10.77
2019-02-12T16:58:36.975Z,17.60
2019-02-12T17:01:08.816Z,16.20
2019-02-12T17:03:40.431Z,19.10
2019-02-12T17:06:12.710Z,18.93
2019-02-12T17:08:44.373Z,18.30
2019-02-12T17:11:16.076Z,21.37
2019-02-12T17:13:47.796Z,20.63
2019-02-12T17:16:19.152Z,20.17
2019-02-12T17:18:51.337Z,16.60
2019-02-12T17:21:22.847Z,16.67
2019-02-12T17:23:54.834Z,18.67
2019-02-12T17:26:26.477Z,22.73
2019-02-12T17:28:57.917Z,17.40
2019-02-12T17:31:29.400Z,17.33
2019-02-12T17:34:01.740Z,15.07
2019-02-12T17:36:33.260Z,15.63
2019-02-12T17:39:05.699Z,21.07
2019-02-12T17:41:39.053Z,20.07
2019-02-12T17:44:10.670Z,23.27
2019-02-12T17:46:42.264Z,13.17
2019-02-12T17:49:13.869Z,17.00
2019-02-12T17:51:45.174Z,15.50
2019-02-12T17:54:16.571Z,17.50
2019-02-12T17:56:48.089Z,16.20
2019-02-12T17:59:19.557Z,21.10
2019-02-12T18:01:51.685Z,18.30
2019-02-12T18:04:23.055Z,15.50
2019-02-12T18:06:54.804Z,14.20
2019-02-12T18:09:28.454Z,17.37
2019-02-12T18:12:00.220Z,17.33
2019-02-12T18:14:31.876Z,11.50
2019-02-12T18:17:03.241Z,20.00
2019-02-12T18:19:34.667Z,21.70
2019-02-12T18:22:06.699Z,30.47
2019-02-12T18:24:38.115Z,21.87
2019-02-12T18:27:09.662Z,34.33
2019-02-12T18:29:40.897Z,21.43
2019-02-12T18:32:12.800Z,13.43
2019-02-12T18:34:44.445Z,19.30
2019-02-12T18:37:16.042Z,19.20
2019-02-12T18:39:47.688Z,17.80
2019-02-12T18:42:19.060Z,20.90
2019-02-12T18:44:51.761Z,14.37
2019-02-12T18:47:23.129Z,17.57
2019-02-12T18:49:54.691Z,19.83
2019-02-12T18:52:26.368Z,14.73
2019-02-12T18:54:57.934Z,21.17
2019-02-12T18:57:29.731Z,18.57
2019-02-12T19:00:02.211Z,16.50
2019-02-12T19:02:34.056Z,16.50
2019-02-12T19:05:05.947Z,18.53
2019-02-12T19:07:38.905Z,18.00
2019-02-12T19:10:11.460Z,19.40
2019-02-12T19:12:43.461Z,21.73
2019-02-12T19:15:16.171Z,17.13
2019-02-12T19:17:51.263Z,18.77
2019-02-12T19:20:22.623Z,16.70
2019-02-12T19:22:55.609Z,21.27
2019-02-12T19:25:27.147Z,23.97
2019-02-12T19:27:58.722Z,21.10
2019-02-12T19:30:30.348Z,18.13
2019-02-12T19:33:02.075Z,22.30
2019-02-12T19:35:33.692Z,20.87
2019-02-12T19:38:05.379Z,23.70
2019-02-12T19:40:37.015Z,18.07
2019-02-12T19:43:08.747Z,20.13
2019-02-12T19:45:40.429Z,20.50
2019-02-12T19:48:12.292Z,22.73
2019-02-12T19:50:44.243Z,24.57
2019-02-12T19:53:16.983Z,21.67
2019-02-12T19:55:48.401Z,25.03
2019-02-12T19:58:20.124Z,22.73
2019-02-12T20:00:51.931Z,17.57
2019-02-12T20:03:23.739Z,22.83
2019-02-12T20:05:55.515Z,23.00
2019-02-12T20:08:26.853Z,16.33
2019-02-12T20:10:58.616Z,20.30
2019-02-12T20:13:29.862Z,20.83
2019-02-12T20:16:02.239Z,22.53
2019-02-12T20:18:34.118Z,25.37
2019-02-12T20:21:06.121Z,20.63
2019-02-12T20:23:37.842Z,22.83
2019-02-12T20:26:09.747Z,17.93
2019-02-12T20:28:41.238Z,22.60
2019-02-12T20:31:12.894Z,22.43
2019-02-12T20:33:44.697Z,20.93
2019-02-12T20:36:16.030Z,20.93
2019-02-12T20:38:47.387Z,23.87
2019-02-12T20:41:24.372Z,18.17
2019-02-12T20:43:55.662Z,23.57
2019-02-12T20:46:27.159Z,24.70
2019-02-12T20:48:58.851Z,21.53
2019-02-12T20:51:30.562Z,22.07
2019-02-12T20:54:02.618Z,21.77
2019-02-12T20:56:33.889Z,18.13
2019-02-12T20:59:05.303Z,18.20
2019-02-12T21:01:37.352Z,19.67
2019-02-12T21:04:09.206Z,18.93
2019-02-12T21:06:41.257Z,21.37
2019-02-12T21:09:13.090Z,24.37
2019-02-12T21:11:45.345Z,24.30
2019-02-12T21:14:17.021Z,22.93
2019-02-12T21:16:48.451Z,23.60
2019-02-12T21:19:20.259Z,20.80
2019-02-12T21:21:52.731Z,22.63
2019-02-12T21:24:26.265Z,25.70
2019-02-12T21:26:58.053Z,20.87
2019-02-12T21:29:29.771Z,26.10
2019-02-12T21:32:01.233Z,20.57
2019-02-12T21:34:33.040Z,20.53
2019-02-12T21:37:04.433Z,19.33
2019-02-12T21:39:36.013Z,23.50
2019-02-12T21:42:07.735Z,16.93
2019-02-12T21:44:39.836Z,17.03
2019-02-12T21:47:11.540Z,34.57
2019-02-12T21:49:43.254Z,15.53
2019-02-12T21:52:14.884Z,18.10
2019-02-12T21:54:46.326Z,17.33
2019-02-12T21:57:17.919Z,22.30
2019-02-12T21:59:50.526Z,21.97
2019-02-12T22:02:22.767Z,19.83
2019-02-12T22:04:54.931Z,18.27
2019-02-12T22:07:26.214Z,27.17
2019-02-12T22:09:57.783Z,25.13
2019-02-12T22:12:29.407Z,26.70
2019-02-12T22:15:02.273Z,27.30
2019-02-12T22:17:35.438Z,22.93
2019-02-12T22:20:07.946Z,25.93
2019-02-12T22:22:39.727Z,19.37
2019-02-12T22:25:11.507Z,27.47
2019-02-12T22:27:42.933Z,26.40
2019-02-12T22:30:16.519Z,27.43
2019-02-12T22:32:48.047Z,19.70
2019-02-12T22:35:19.582Z,21.10
2019-02-12T22:37:51.757Z,19.77
2019-02-12T22:40:23.287Z,26.30
2019-02-12T22:43:00.546Z,22.83
2019-02-12T22:45:32.208Z,28.30
2019-02-12T22:48:03.734Z,20.63
2019-02-12T22:50:35.152Z,25.80
2019-02-12T22:53:06.818Z,21.63
2019-02-12T22:55:38.802Z,21.33
2019-02-12T22:58:11.704Z,21.27
2019-02-12T23:00:59.333Z,14.70
2019-02-12T23:03:30.803Z,19.03
2019-02-12T23:06:02.240Z,15.67
2019-02-12T23:08:33.813Z,18.43
2019-02-12T23:11:05.756Z,15.67
2019-02-12T23:13:37.116Z,18.10
2019-02-12T23:16:08.749Z,18.23
2019-02-12T23:18:40.081Z,18.20
2019-02-12T23:21:16.889Z,21.27
2019-02-12T23:23:48.453Z,18.00
2019-02-12T23:26:19.987Z,14.70
2019-02-12T23:28:53.758Z,12.33
2019-02-12T23:31:25.388Z,15.93
2019-02-12T23:33:56.950Z,13.07
2019-02-12T23:36:28.487Z,15.97
2019-02-12T23:39:00.648Z,13.80
2019-02-12T23:41:40.803Z,13.93
2019-02-12T23:44:12.599Z,14.23
2019-02-12T23:46:44.308Z,7.97
2019-02-12T23:49:15.736Z,14.70
2019-02-12T23:51:47.577Z,9.53
2019-02-12T23:54:18.993Z,10.00
2019-02-12T23:56:50.393Z,8.40
2019-02-12T23:59:22.093Z,9.57
